EDDTEDXW

Guest
Details From EDDT - Berlin Tegel
To EDXW - Westerland Sylt
Flight Number -
Tags Generated
Created
Modified
Stats Distance 225 nm / 418 km
Max Altitude 0 ft / 0 m
Waypoints 3
Social Downloads 0
Likes 0
Share VATSIM

Download

Looking for another format? Having issues loading an existing format? Contact us
Advertisement - Login to hide

Notes

Generated

Route

EDDT SLT EDXW

ID Type Via Altitude Latitude Longitude Leg Dist Tot Dist Heading (true) Name
O EDDT APT - 0 ft / 0 m 52.55668˚ 13.27499˚ - 0 nm - -
SLT NDB - 0 ft / 0 m 54.85690˚ 8.40998˚ 221 nm 221 nm 311° / 307° SYLT NDB
O EDXW APT - 0 ft / 0 m 54.90942˚ 8.32917˚ 4 nm 225 nm 319° / 318° -

Altitude Profile

Advertisement - Login to hide

Weather


0- 5 10 15 20 25 30 35+ Temperature / ° C

Clouds and Precipitation
Forecast for 2017-12-11 18:00 UTC. Updated 18 minutes ago

Ground ~20,000 ft ~40,000 ft Winds

EDDT

Details ICAO EDDT (TXL)
Name Berlin Tegel
Region Germany - Civil
Timezone Europe/Berlin (UTC+1.0)
Stats Elevation 122 ft / 37 m (AMSL)
Location 52.559100° 13.290188°
Runways 2
Magnetic Variation 3.750° E

METAR

EDDT 111520Z 08007KT 050V120 9999 -RA BKN028 02/01 Q0985 R08L/690295 R08R/620195 NOSIG

Decode

TAF

TAF EDDT 111100Z 1112/1212 09007KT 7000 BKN035 TEMPO 1115/1119 4000 RA BKN009 BECMG 1119/1121 18009KT 4500 -DZ BKN007 BECMG 1123/1201 FEW025 BECMG 1203/1205 21015G25KT 9999

Decode

Departure Runways

ID Width Length Bearing (true) Bearing (mag) Surface Threshold Offset Overrun Length
08L 151 ft / 46 m 9,885 ft / 3,013 m 80.83° 77.08° Asphalt 0 ft / 0 m 226 ft / 69 m
08R 151 ft / 46 m 7,923 ft / 2,415 m 80.84° 77.09° Asphalt 341 ft / 104 m 207 ft / 63 m
26L 151 ft / 46 m 7,923 ft / 2,415 m 260.87° 257.12° Asphalt 722 ft / 220 m 157 ft / 48 m
26R 151 ft / 46 m 9,885 ft / 3,013 m 260.86° 257.11° Asphalt 0 ft / 0 m 223 ft / 68 m

EDXW

Details ICAO EDXW (GWT)
Name Westerland Sylt
Region Germany - Civil
Timezone Europe/Berlin (UTC+1.0)
Stats Elevation 51 ft / 16 m (AMSL)
Location 54.912433° 8.341536°
Runways 2
Magnetic Variation 2.241° E

METAR

EDXW 111520Z 05013KT CAVOK 01/M01 Q0986

Decode

TAF

Not found

Destination Runways

ID Width Length Bearing (true) Bearing (mag) Surface Threshold Offset Overrun Length
06 148 ft / 45 m 5,551 ft / 1,692 m 59.58° 57.34° Asphalt 0 ft / 0 m 0 ft / 0 m
14 148 ft / 45 m 6,944 ft / 2,117 m 144.52° 142.28° Asphalt 0 ft / 0 m 105 ft / 32 m
24 148 ft / 45 m 5,551 ft / 1,692 m 239.60° 237.36° Asphalt 0 ft / 0 m 0 ft / 0 m
32 148 ft / 45 m 6,944 ft / 2,117 m 324.53° 322.29° Asphalt 0 ft / 0 m 105 ft / 32 m

Approach Navaids

Runway Type Ident Frequency Range Bearing (true) Bearing (mag) Slope Elevation
32 Localiser IWES 111.50 MHz 18 nm / 33 km 324.52° 322.28° - 32 ft / 10 m (AMSL)
32 Glidescope IWES 111.50 MHz 10 nm / 19 km 324.53° 322.29° 3.00° 32 ft / 10 m (AMSL)
32 DME IWES 111.50 MHz 18 nm / 33 km - - - 49 ft / 15 m (AMSL)

Popular Alternatives